sensor_id;sensor_type;location;lat;lon;timestamp;pressure;altitude;pressure_sealevel;temperature;humidity
61055;BME280;46939;48.940;8.258;2022-11-15T00:01:17;100088.38;;;17.29;46.02
61055;BME280;46939;48.940;8.258;2022-11-15T00:03:50;100088.50;;;17.35;46.02
61055;BME280;46939;48.940;8.258;2022-11-15T00:06:19;100085.00;;;17.34;45.87
61055;BME280;46939;48.940;8.258;2022-11-15T00:08:47;100091.38;;;17.33;46.20
61055;BME280;46939;48.940;8.258;2022-11-15T00:11:15;100092.44;;;17.32;45.64
61055;BME280;46939;48.940;8.258;2022-11-15T00:13:44;100081.19;;;17.30;46.03
61055;BME280;46939;48.940;8.258;2022-11-15T00:16:12;100081.66;;;17.27;46.02
61055;BME280;46939;48.940;8.258;2022-11-15T00:18:41;100072.91;;;17.31;45.96
61055;BME280;46939;48.940;8.258;2022-11-15T00:21:13;100083.34;;;17.33;45.83
61055;BME280;46939;48.940;8.258;2022-11-15T00:23:41;100078.00;;;17.33;45.89
61055;BME280;46939;48.940;8.258;2022-11-15T00:26:12;100080.69;;;17.33;45.97
61055;BME280;46939;48.940;8.258;2022-11-15T00:28:41;100076.47;;;17.37;45.89
61055;BME280;46939;48.940;8.258;2022-11-15T00:31:12;100077.53;;;17.36;45.63
61055;BME280;46939;48.940;8.258;2022-11-15T00:33:43;100072.19;;;17.36;46.02
61055;BME280;46939;48.940;8.258;2022-11-15T00:36:14;100067.41;;;17.38;45.75
61055;BME280;46939;48.940;8.258;2022-11-15T00:38:42;100063.91;;;17.38;46.05
61055;BME280;46939;48.940;8.258;2022-11-15T00:41:10;100058.91;;;17.41;45.94
61055;BME280;46939;48.940;8.258;2022-11-15T00:43:39;100064.13;;;17.36;46.10
61055;BME280;46939;48.940;8.258;2022-11-15T00:46:08;100061.19;;;17.49;46.13
61055;BME280;46939;48.940;8.258;2022-11-15T00:48:37;100062.56;;;17.52;45.99
61055;BME280;46939;48.940;8.258;2022-11-15T00:51:05;100053.81;;;17.56;46.03
61055;BME280;46939;48.940;8.258;2022-11-15T00:53:36;100058.91;;;17.58;46.18
61055;BME280;46939;48.940;8.258;2022-11-15T00:56:05;100052.16;;;17.55;45.90
61055;BME280;46939;48.940;8.258;2022-11-15T00:58:33;100051.63;;;17.53;46.18
61055;BME280;46939;48.940;8.258;2022-11-15T01:01:06;100043.66;;;17.58;45.88
61055;BME280;46939;48.940;8.258;2022-11-15T01:03:35;100036.69;;;17.57;46.17
61055;BME280;46939;48.940;8.258;2022-11-15T01:06:04;100042.38;;;17.61;45.75
61055;BME280;46939;48.940;8.258;2022-11-15T01:08:35;100043.19;;;17.62;46.11
61055;BME280;46939;48.940;8.258;2022-11-15T01:11:06;100033.84;;;17.64;46.05
61055;BME280;46939;48.940;8.258;2022-11-15T01:13:36;100036.53;;;17.64;46.25
61055;BME280;46939;48.940;8.258;2022-11-15T01:16:10;100032.88;;;17.70;45.87
61055;BME280;46939;48.940;8.258;2022-11-15T01:18:39;100034.41;;;17.66;46.06
61055;BME280;46939;48.940;8.258;2022-11-15T01:21:08;100031.59;;;17.73;45.76
61055;BME280;46939;48.940;8.258;2022-11-15T01:23:40;100024.13;;;17.75;45.91
61055;BME280;46939;48.940;8.258;2022-11-15T01:26:11;100032.97;;;17.75;45.92
61055;BME280;46939;48.940;8.258;2022-11-15T01:28:41;100028.47;;;17.76;46.27
61055;BME280;46939;48.940;8.258;2022-11-15T01:31:12;100032.63;;;17.72;45.68
61055;BME280;46939;48.940;8.258;2022-11-15T01:33:41;100034.00;;;17.74;46.26
61055;BME280;46939;48.940;8.258;2022-11-15T01:36:13;100026.59;;;17.76;45.97
61055;BME280;46939;48.940;8.258;2022-11-15T01:38:45;100027.84;;;17.74;45.89
61055;BME280;46939;48.940;8.258;2022-11-15T01:41:17;100028.47;;;17.76;45.81
61055;BME280;46939;48.940;8.258;2022-11-15T01:43:47;100029.00;;;17.78;45.89
61055;BME280;46939;48.940;8.258;2022-11-15T01:46:29;100022.69;;;17.84;46.17
61055;BME280;46939;48.940;8.258;2022-11-15T01:49:15;100017.88;;;17.86;46.15
61055;BME280;46939;48.940;8.258;2022-11-15T01:51:44;100013.66;;;17.90;46.14
61055;BME280;46939;48.940;8.258;2022-11-15T01:54:18;100014.25;;;17.92;45.96
61055;BME280;46939;48.940;8.258;2022-11-15T01:56:52;100009.63;;;17.88;46.11
61055;BME280;46939;48.940;8.258;2022-11-15T01:59:21;100005.94;;;17.94;46.00
61055;BME280;46939;48.940;8.258;2022-11-15T02:01:50;100003.84;;;17.96;46.11
61055;BME280;46939;48.940;8.258;2022-11-15T02:04:21;100002.03;;;18.01;46.12
61055;BME280;46939;48.940;8.258;2022-11-15T02:06:50;99992.69;;;18.04;45.91
61055;BME280;46939;48.940;8.258;2022-11-15T02:09:22;99991.41;;;18.07;45.63
61055;BME280;46939;48.940;8.258;2022-11-15T02:11:50;99981.16;;;18.03;45.60
61055;BME280;46939;48.940;8.258;2022-11-15T02:14:20;99985.47;;;18.04;45.68
61055;BME280;46939;48.940;8.258;2022-11-15T02:16:58;99978.81;;;18.07;45.49
61055;BME280;46939;48.940;8.258;2022-11-15T02:19:47;99976.03;;;18.02;46.15
61055;BME280;46939;48.940;8.258;2022-11-15T02:22:32;99967.78;;;18.03;45.93
61055;BME280;46939;48.940;8.258;2022-11-15T02:25:20;99973.34;;;18.02;45.95
61055;BME280;46939;48.940;8.258;2022-11-15T02:28:03;99972.50;;;17.96;46.33
61055;BME280;46939;48.940;8.258;2022-11-15T02:30:41;99968.50;;;17.99;46.06
61055;BME280;46939;48.940;8.258;2022-11-15T02:33:20;99970.34;;;17.98;46.08
61055;BME280;46939;48.940;8.258;2022-11-15T02:35:57;99952.13;;;17.95;46.04
61055;BME280;46939;48.940;8.258;2022-11-15T02:38:32;99959.31;;;17.95;45.67
61055;BME280;46939;48.940;8.258;2022-11-15T02:41:02;99969.66;;;17.86;45.95
61055;BME280;46939;48.940;8.258;2022-11-15T02:43:37;99962.25;;;17.93;46.05
61055;BME280;46939;48.940;8.258;2022-11-15T02:46:27;99949.44;;;17.95;45.72
61055;BME280;46939;48.940;8.258;2022-11-15T02:49:11;99952.66;;;17.97;45.99
61055;BME280;46939;48.940;8.258;2022-11-15T02:51:40;99948.69;;;18.00;46.02
61055;BME280;46939;48.940;8.258;2022-11-15T02:54:12;99945.38;;;17.93;45.63
61055;BME280;46939;48.940;8.258;2022-11-15T02:56:43;99948.91;;;17.98;45.64
61055;BME280;46939;48.940;8.258;2022-11-15T03:02:18;99949.75;;;17.99;45.87
61055;BME280;46939;48.940;8.258;2022-11-15T03:04:53;99945.44;;;17.98;46.17
61055;BME280;46939;48.940;8.258;2022-11-15T03:07:28;99946.34;;;18.03;45.75
61055;BME280;46939;48.940;8.258;2022-11-15T03:10:02;99933.78;;;18.09;46.09
61055;BME280;46939;48.940;8.258;2022-11-15T03:12:37;99935.66;;;18.09;45.85
61055;BME280;46939;48.940;8.258;2022-11-15T03:15:12;99927.94;;;18.12;45.66
61055;BME280;46939;48.940;8.258;2022-11-15T03:17:52;99936.00;;;18.12;45.94
61055;BME280;46939;48.940;8.258;2022-11-15T03:20:24;99930.38;;;18.14;45.76
61055;BME280;46939;48.940;8.258;2022-11-15T03:22:55;99932.88;;;18.20;45.88
61055;BME280;46939;48.940;8.258;2022-11-15T03:25:28;99928.09;;;18.22;45.79
61055;BME280;46939;48.940;8.258;2022-11-15T03:27:58;99925.16;;;18.24;46.03
61055;BME280;46939;48.940;8.258;2022-11-15T03:30:30;99938.00;;;18.22;45.64
61055;BME280;46939;48.940;8.258;2022-11-15T03:33:04;99927.28;;;18.22;45.98
61055;BME280;46939;48.940;8.258;2022-11-15T03:35:37;99929.38;;;18.20;45.87
61055;BME280;46939;48.940;8.258;2022-11-15T03:38:11;99927.94;;;18.12;45.70
61055;BME280;46939;48.940;8.258;2022-11-15T03:40:45;99925.84;;;18.14;46.16
61055;BME280;46939;48.940;8.258;2022-11-15T03:43:22;99927.03;;;18.23;46.03
61055;BME280;46939;48.940;8.258;2022-11-15T03:45:57;99931.00;;;18.21;46.15
61055;BME280;46939;48.940;8.258;2022-11-15T03:48:34;99921.41;;;18.25;45.92
61055;BME280;46939;48.940;8.258;2022-11-15T03:51:04;99920.91;;;18.28;45.91
61055;BME280;46939;48.940;8.258;2022-11-15T03:53:33;99916.91;;;18.30;45.37
61055;BME280;46939;48.940;8.258;2022-11-15T03:56:01;99934.88;;;18.30;45.39
61055;BME280;46939;48.940;8.258;2022-11-15T03:58:29;99933.50;;;18.27;45.65
61055;BME280;46939;48.940;8.258;2022-11-15T04:00:58;99925.19;;;18.29;45.96
61055;BME280;46939;48.940;8.258;2022-11-15T04:03:27;99928.19;;;18.33;45.57
61055;BME280;46939;48.940;8.258;2022-11-15T04:05:58;99925.50;;;18.33;45.54
61055;BME280;46939;48.940;8.258;2022-11-15T04:08:26;99921.06;;;18.21;46.17
61055;BME280;46939;48.940;8.258;2022-11-15T04:10:54;99922.94;;;18.21;45.71
61055;BME280;46939;48.940;8.258;2022-11-15T04:13:23;99912.53;;;18.24;45.47
61055;BME280;46939;48.940;8.258;2022-11-15T04:15:51;99935.91;;;18.29;46.01
61055;BME280;46939;48.940;8.258;2022-11-15T04:18:19;99928.72;;;18.29;46.06
61055;BME280;46939;48.940;8.258;2022-11-15T04:20:49;99931.94;;;18.32;45.80
61055;BME280;46939;48.940;8.258;2022-11-15T04:23:33;99934.94;;;18.35;45.89
61055;BME280;46939;48.940;8.258;2022-11-15T04:26:25;99935.91;;;18.29;45.76
61055;BME280;46939;48.940;8.258;2022-11-15T04:28:54;99924.22;;;18.35;45.67
61055;BME280;46939;48.940;8.258;2022-11-15T04:31:34;99926.72;;;18.42;45.45
61055;BME280;46939;48.940;8.258;2022-11-15T04:34:03;99917.34;;;18.44;45.98
61055;BME280;46939;48.940;8.258;2022-11-15T04:36:31;99920.03;;;18.44;46.17
61055;BME280;46939;48.940;8.258;2022-11-15T04:39:15;99914.56;;;18.34;46.27
61055;BME280;46939;48.940;8.258;2022-11-15T04:41:43;99916.34;;;18.50;45.95
61055;BME280;46939;48.940;8.258;2022-11-15T04:44:12;99909.59;;;18.48;45.57
61055;BME280;46939;48.940;8.258;2022-11-15T04:46:41;99912.06;;;18.49;45.72
61055;BME280;46939;48.940;8.258;2022-11-15T04:49:10;99903.75;;;18.51;45.54
61055;BME280;46939;48.940;8.258;2022-11-15T04:51:40;99897.88;;;18.54;45.53
61055;BME280;46939;48.940;8.258;2022-11-15T04:54:08;99890.38;;;18.56;45.72
61055;BME280;46939;48.940;8.258;2022-11-15T04:56:39;99901.41;;;18.60;45.66
61055;BME280;46939;48.940;8.258;2022-11-15T04:59:07;99895.75;;;18.56;45.42
61055;BME280;46939;48.940;8.258;2022-11-15T05:01:36;99900.38;;;18.61;45.75
61055;BME280;46939;48.940;8.258;2022-11-15T05:04:04;99890.22;;;18.68;45.28
61055;BME280;46939;48.940;8.258;2022-11-15T05:06:47;99892.63;;;18.64;45.61
61055;BME280;46939;48.940;8.258;2022-11-15T05:09:15;99907.31;;;18.57;45.98
61055;BME280;46939;48.940;8.258;2022-11-15T05:11:47;99899.31;;;18.62;45.80
61055;BME280;46939;48.940;8.258;2022-11-15T05:14:15;99896.34;;;18.63;45.71
61055;BME280;46939;48.940;8.258;2022-11-15T05:16:44;99894.56;;;18.69;45.69
61055;BME280;46939;48.940;8.258;2022-11-15T05:19:12;99885.69;;;18.68;45.67
61055;BME280;46939;48.940;8.258;2022-11-15T05:21:41;99897.31;;;18.74;45.82
61055;BME280;46939;48.940;8.258;2022-11-15T05:24:09;99894.13;;;18.77;45.48
61055;BME280;46939;48.940;8.258;2022-11-15T05:26:38;99891.44;;;18.77;45.36
61055;BME280;46939;48.940;8.258;2022-11-15T05:29:11;99882.59;;;18.76;45.22
61055;BME280;46939;48.940;8.258;2022-11-15T05:31:40;99883.41;;;18.77;45.45
61055;BME280;46939;48.940;8.258;2022-11-15T05:34:09;99880.91;;;18.70;45.42
61055;BME280;46939;48.940;8.258;2022-11-15T05:36:40;99890.34;;;18.73;45.41
61055;BME280;46939;48.940;8.258;2022-11-15T05:39:10;99883.34;;;18.72;45.67
61055;BME280;46939;48.940;8.258;2022-11-15T05:41:41;99884.88;;;18.68;45.21
61055;BME280;46939;48.940;8.258;2022-11-15T05:44:16;99890.34;;;18.73;45.52
61055;BME280;46939;48.940;8.258;2022-11-15T05:46:46;99880.91;;;18.70;45.33
61055;BME280;46939;48.940;8.258;2022-11-15T05:49:18;99885.41;;;18.65;45.04
61055;BME280;46939;48.940;8.258;2022-11-15T05:51:48;99893.44;;;18.65;45.07
61055;BME280;46939;48.940;8.258;2022-11-15T05:54:17;99887.47;;;18.58;45.21
61055;BME280;46939;48.940;8.258;2022-11-15T05:56:47;99892.25;;;18.55;45.57
61055;BME280;46939;48.940;8.258;2022-11-15T05:59:19;99891.72;;;18.53;45.47
61055;BME280;46939;48.940;8.258;2022-11-15T06:01:48;99893.50;;;18.48;45.43
61055;BME280;46939;48.940;8.258;2022-11-15T06:04:17;99896.75;;;18.50;45.19
61055;BME280;46939;48.940;8.258;2022-11-15T06:06:45;99890.78;;;18.43;45.22
61055;BME280;46939;48.940;8.258;2022-11-15T06:09:13;99886.72;;;18.40;45.03
61055;BME280;46939;48.940;8.258;2022-11-15T06:11:42;99885.88;;;18.35;45.25
61055;BME280;46939;48.940;8.258;2022-11-15T06:14:10;99877.50;;;18.31;45.42
61055;BME280;46939;48.940;8.258;2022-11-15T06:16:52;99877.25;;;18.33;45.17
61055;BME280;46939;48.940;8.258;2022-11-15T06:19:30;99880.94;;;18.26;45.25
61055;BME280;46939;48.940;8.258;2022-11-15T06:22:00;99873.13;;;18.25;45.40
61055;BME280;46939;48.940;8.258;2022-11-15T06:24:28;99879.06;;;18.27;45.27
61055;BME280;46939;48.940;8.258;2022-11-15T06:26:56;99867.03;;;18.29;45.88
61055;BME280;46939;48.940;8.258;2022-11-15T06:29:25;99870.53;;;18.30;45.74
61055;BME280;46939;48.940;8.258;2022-11-15T06:31:56;99865.72;;;18.32;45.75
61055;BME280;46939;48.940;8.258;2022-11-15T06:34:24;99872.47;;;18.35;45.43
61055;BME280;46939;48.940;8.258;2022-11-15T06:36:53;99874.25;;;18.29;45.73
61055;BME280;46939;48.940;8.258;2022-11-15T06:39:21;99868.41;;;18.32;45.81
61055;BME280;46939;48.940;8.258;2022-11-15T06:41:49;99868.66;;;18.30;45.47
61055;BME280;46939;48.940;8.258;2022-11-15T06:44:18;99866.78;;;18.31;46.06
61055;BME280;46939;48.940;8.258;2022-11-15T06:46:46;99866.72;;;18.26;45.63
61055;BME280;46939;48.940;8.258;2022-11-15T06:49:17;99868.16;;;18.34;45.36
61055;BME280;46939;48.940;8.258;2022-11-15T06:51:45;99858.78;;;18.36;45.88
61055;BME280;46939;48.940;8.258;2022-11-15T06:54:14;99860.34;;;18.32;45.47
61055;BME280;46939;48.940;8.258;2022-11-15T06:56:42;99866.06;;;18.41;45.46
61055;BME280;46939;48.940;8.258;2022-11-15T06:59:11;99871.75;;;18.44;45.72
61055;BME280;46939;48.940;8.258;2022-11-15T07:01:39;99865.34;;;18.45;45.43
61055;BME280;46939;48.940;8.258;2022-11-15T07:04:08;99865.06;;;18.47;45.40
61055;BME280;46939;48.940;8.258;2022-11-15T07:06:39;99869.44;;;18.53;45.57
61055;BME280;46939;48.940;8.258;2022-11-15T07:09:07;99870.56;;;18.57;45.81
61055;BME280;46939;48.940;8.258;2022-11-15T07:11:35;99876.97;;;18.56;45.76
61055;BME280;46939;48.940;8.258;2022-11-15T07:14:04;99879.16;;;18.59;45.42
61055;BME280;46939;48.940;8.258;2022-11-15T07:16:32;99883.22;;;18.62;45.34
61055;BME280;46939;48.940;8.258;2022-11-15T07:19:01;99870.66;;;18.67;45.29
61055;BME280;46939;48.940;8.258;2022-11-15T07:21:29;99873.59;;;18.66;45.52
61055;BME280;46939;48.940;8.258;2022-11-15T07:24:00;99875.84;;;18.74;45.58
61055;BME280;46939;48.940;8.258;2022-11-15T07:26:29;99872.09;;;18.75;45.36
61055;BME280;46939;48.940;8.258;2022-11-15T07:28:57;99872.97;;;18.81;45.42
61055;BME280;46939;48.940;8.258;2022-11-15T07:31:26;99867.34;;;18.82;45.70
61055;BME280;46939;48.940;8.258;2022-11-15T07:33:54;99868.13;;;18.83;45.83
61055;BME280;46939;48.940;8.258;2022-11-15T07:36:22;99876.47;;;18.81;45.99
61055;BME280;46939;48.940;8.258;2022-11-15T07:38:51;99877.75;;;18.78;45.89
61055;BME280;46939;48.940;8.258;2022-11-15T07:41:22;99884.47;;;18.76;45.96
61055;BME280;46939;48.940;8.258;2022-11-15T07:43:51;99880.22;;;18.80;45.64
61055;BME280;46939;48.940;8.258;2022-11-15T07:46:19;99878.69;;;18.89;45.69
61055;BME280;46939;48.940;8.258;2022-11-15T07:48:48;99879.78;;;18.93;45.87
61055;BME280;46939;48.940;8.258;2022-11-15T07:51:16;99882.00;;;19.01;45.29
61055;BME280;46939;48.940;8.258;2022-11-15T07:53:45;99882.56;;;19.03;45.79
61055;BME280;46939;48.940;8.258;2022-11-15T07:56:13;99877.50;;;19.07;45.56
61055;BME280;46939;48.940;8.258;2022-11-15T07:58:45;99875.13;;;19.11;45.69
61055;BME280;46939;48.940;8.258;2022-11-15T08:01:13;99872.16;;;19.12;45.66
61055;BME280;46939;48.940;8.258;2022-11-15T08:03:42;99872.47;;;19.16;45.83
61055;BME280;46939;48.940;8.258;2022-11-15T08:06:10;99868.22;;;19.25;45.38
61055;BME280;46939;48.940;8.258;2022-11-15T08:08:38;99875.00;;;19.33;45.40
61055;BME280;46939;48.940;8.258;2022-11-15T08:11:07;99872.03;;;19.29;45.53
61055;BME280;46939;48.940;8.258;2022-11-15T08:13:35;99867.00;;;19.38;45.17
61055;BME280;46939;48.940;8.258;2022-11-15T08:16:06;99871.88;;;19.46;45.16
61055;BME280;46939;48.940;8.258;2022-11-15T08:18:37;99870.03;;;19.51;45.24
61055;BME280;46939;48.940;8.258;2022-11-15T08:21:05;99874.63;;;19.56;45.19
61055;BME280;46939;48.940;8.258;2022-11-15T08:23:34;99883.34;;;19.68;45.30
61055;BME280;46939;48.940;8.258;2022-11-15T08:26:04;99880.66;;;19.68;45.35
61055;BME280;46939;48.940;8.258;2022-11-15T08:28:32;99874.00;;;19.76;45.45
61055;BME280;46939;48.940;8.258;2022-11-15T08:31:01;99870.28;;;19.87;45.63
61055;BME280;46939;48.940;8.258;2022-11-15T08:33:33;99862.81;;;19.99;45.04
61055;BME280;46939;48.940;8.258;2022-11-15T08:36:01;99861.50;;;20.07;45.33
61055;BME280;46939;48.940;8.258;2022-11-15T08:38:30;99863.94;;;20.14;45.41
61055;BME280;46939;48.940;8.258;2022-11-15T08:41:03;99857.53;;;20.25;45.34
61055;BME280;46939;48.940;8.258;2022-11-15T08:43:32;99855.16;;;20.34;45.35
61055;BME280;46939;48.940;8.258;2022-11-15T08:46:00;99855.69;;;20.36;45.51
61055;BME280;46939;48.940;8.258;2022-11-15T08:48:31;99853.03;;;20.46;45.18
61055;BME280;46939;48.940;8.258;2022-11-15T08:51:00;99853.34;;;20.50;45.31
61055;BME280;46939;48.940;8.258;2022-11-15T08:53:28;99854.97;;;20.61;45.38
61055;BME280;46939;48.940;8.258;2022-11-15T08:55:57;99856.84;;;20.65;44.89
61055;BME280;46939;48.940;8.258;2022-11-15T08:58:25;99854.44;;;20.69;44.71
61055;BME280;46939;48.940;8.258;2022-11-15T09:00:54;99855.81;;;20.77;45.08
61055;BME280;46939;48.940;8.258;2022-11-15T09:03:22;99848.53;;;20.82;45.11
61055;BME280;46939;48.940;8.258;2022-11-15T09:05:56;99845.28;;;20.90;44.73
61055;BME280;46939;48.940;8.258;2022-11-15T09:08:28;99843.16;;;20.97;44.97
61055;BME280;46939;48.940;8.258;2022-11-15T09:10:57;99839.91;;;21.06;44.73
61055;BME280;46939;48.940;8.258;2022-11-15T09:13:25;99836.44;;;21.10;44.79
61055;BME280;46939;48.940;8.258;2022-11-15T09:15:57;99836.16;;;21.12;44.47
61055;BME280;46939;48.940;8.258;2022-11-15T09:18:25;99838.56;;;21.18;44.44
61055;BME280;46939;48.940;8.258;2022-11-15T09:20:58;99838.00;;;21.21;44.97
61055;BME280;46939;48.940;8.258;2022-11-15T09:23:27;99839.34;;;21.29;44.71
61055;BME280;46939;48.940;8.258;2022-11-15T09:26:00;99839.91;;;21.36;45.07
61055;BME280;46939;48.940;8.258;2022-11-15T09:28:29;99844.50;;;21.46;44.78
61055;BME280;46939;48.940;8.258;2022-11-15T09:30:58;99839.63;;;21.53;44.37
61055;BME280;46939;48.940;8.258;2022-11-15T09:33:27;99848.22;;;21.65;44.60
61055;BME280;46939;48.940;8.258;2022-11-15T09:36:03;99843.06;;;21.74;44.43
61055;BME280;46939;48.940;8.258;2022-11-15T09:38:32;99844.16;;;21.73;44.16
61055;BME280;46939;48.940;8.258;2022-11-15T09:44:17;99831.72;;;21.87;44.11
61055;BME280;46939;48.940;8.258;2022-11-15T09:46:54;99839.22;;;21.90;44.50
61055;BME280;46939;48.940;8.258;2022-11-15T09:49:25;99834.09;;;21.94;44.21
61055;BME280;46939;48.940;8.258;2022-11-15T09:51:56;99838.66;;;22.04;43.70
61055;BME280;46939;48.940;8.258;2022-11-15T09:54:30;99842.69;;;22.06;43.41
61055;BME280;46939;48.940;8.258;2022-11-15T09:57:04;99841.34;;;22.04;43.85
61055;BME280;46939;48.940;8.258;2022-11-15T09:59:48;99843.50;;;22.07;43.74
61055;BME280;46939;48.940;8.258;2022-11-15T10:02:31;99843.50;;;22.07;43.45
61055;BME280;46939;48.940;8.258;2022-11-15T10:05:01;99843.47;;;22.12;44.02
61055;BME280;46939;48.940;8.258;2022-11-15T10:07:38;99844.56;;;22.11;43.75
61055;BME280;46939;48.940;8.258;2022-11-15T10:10:14;99836.72;;;22.20;43.59
61055;BME280;46939;48.940;8.258;2022-11-15T10:12:45;99839.16;;;22.16;43.99
61055;BME280;46939;48.940;8.258;2022-11-15T10:15:17;99838.06;;;22.22;43.19
61055;BME280;46939;48.940;8.258;2022-11-15T10:18:07;99840.19;;;22.25;43.27
61055;BME280;46939;48.940;8.258;2022-11-15T10:20:46;99840.78;;;22.22;43.52
61055;BME280;46939;48.940;8.258;2022-11-15T10:23:19;99843.72;;;22.21;43.58
61055;BME280;46939;48.940;8.258;2022-11-15T10:25:50;99836.94;;;22.28;43.60
61055;BME280;46939;48.940;8.258;2022-11-15T10:28:26;99839.63;;;22.33;43.43
61055;BME280;46939;48.940;8.258;2022-11-15T10:30:58;99831.75;;;22.37;43.42
61055;BME280;46939;48.940;8.258;2022-11-15T10:33:30;99826.06;;;22.43;43.38
61055;BME280;46939;48.940;8.258;2022-11-15T10:36:17;99819.00;;;22.53;43.22
61055;BME280;46939;48.940;8.258;2022-11-15T10:38:57;99819.31;;;22.46;43.18
61055;BME280;46939;48.940;8.258;2022-11-15T10:41:35;99813.09;;;22.46;42.92
61055;BME280;46939;48.940;8.258;2022-11-15T10:44:12;99805.03;;;22.40;43.69
61055;BME280;46939;48.940;8.258;2022-11-15T10:46:46;99790.13;;;22.53;43.29
61055;BME280;46939;48.940;8.258;2022-11-15T10:49:17;99790.25;;;22.67;43.06
61055;BME280;46939;48.940;8.258;2022-11-15T10:51:48;99781.53;;;22.80;43.03
61055;BME280;46939;48.940;8.258;2022-11-15T10:54:24;99773.13;;;22.82;43.13
61055;BME280;46939;48.940;8.258;2022-11-15T10:56:57;99766.59;;;22.93;43.38
61055;BME280;46939;48.940;8.258;2022-11-15T10:59:29;99750.38;;;22.93;43.32
61055;BME280;46939;48.940;8.258;2022-11-15T11:01:59;99754.59;;;23.04;43.41
61055;BME280;46939;48.940;8.258;2022-11-15T11:04:27;99751.56;;;23.11;43.20
61055;BME280;46939;48.940;8.258;2022-11-15T11:06:57;99746.88;;;23.22;42.68
61055;BME280;46939;48.940;8.258;2022-11-15T11:09:33;99742.91;;;23.14;42.81
61055;BME280;46939;48.940;8.258;2022-11-15T11:12:04;99734.44;;;23.21;42.78
61055;BME280;46939;48.940;8.258;2022-11-15T11:14:34;99728.22;;;23.20;43.07
61055;BME280;46939;48.940;8.258;2022-11-15T11:17:05;99716.69;;;23.38;42.98
61055;BME280;46939;48.940;8.258;2022-11-15T11:19:53;99704.72;;;23.45;42.80
61055;BME280;46939;48.940;8.258;2022-11-15T11:22:30;99706.13;;;23.61;42.80
61055;BME280;46939;48.940;8.258;2022-11-15T11:25:15;99710.25;;;23.77;42.29
61055;BME280;46939;48.940;8.258;2022-11-15T11:27:58;99704.06;;;23.96;41.01
61055;BME280;46939;48.940;8.258;2022-11-15T11:30:38;99708.91;;;23.99;40.53
61055;BME280;46939;48.940;8.258;2022-11-15T11:33:13;99695.72;;;24.11;40.65
61055;BME280;46939;48.940;8.258;2022-11-15T11:35:46;99702.38;;;24.19;40.39
61055;BME280;46939;48.940;8.258;2022-11-15T11:38:29;99691.69;;;24.27;40.29
61055;BME280;46939;48.940;8.258;2022-11-15T11:41:11;99685.25;;;24.42;40.40
61055;BME280;46939;48.940;8.258;2022-11-15T11:43:58;99690.19;;;24.54;40.48
61055;BME280;46939;48.940;8.258;2022-11-15T11:46:45;99692.31;;;24.71;40.15
61055;BME280;46939;48.940;8.258;2022-11-15T11:49:18;99683.03;;;24.77;39.96
61055;BME280;46939;48.940;8.258;2022-11-15T11:51:53;99685.34;;;24.83;39.35
61055;BME280;46939;48.940;8.258;2022-11-15T11:54:25;99678.13;;;24.93;39.75
61055;BME280;46939;48.940;8.258;2022-11-15T11:57:04;99672.31;;;24.99;39.19
61055;BME280;46939;48.940;8.258;2022-11-15T11:59:39;99670.81;;;25.07;39.54
61055;BME280;46939;48.940;8.258;2022-11-15T12:02:14;99669.81;;;25.17;39.19
61055;BME280;46939;48.940;8.258;2022-11-15T12:04:48;99663.91;;;25.15;39.72
61055;BME280;46939;48.940;8.258;2022-11-15T12:07:21;99654.66;;;25.16;39.51
61055;BME280;46939;48.940;8.258;2022-11-15T12:09:55;99654.06;;;25.19;39.60
61055;BME280;46939;48.940;8.258;2022-11-15T12:12:36;99648.41;;;25.29;39.68
61055;BME280;46939;48.940;8.258;2022-11-15T12:15:13;99649.94;;;25.35;39.48
61055;BME280;46939;48.940;8.258;2022-11-15T12:17:44;99644.03;;;25.33;39.21
61055;BME280;46939;48.940;8.258;2022-11-15T12:20:16;99647.81;;;25.46;39.39
61055;BME280;46939;48.940;8.258;2022-11-15T12:22:50;99635.56;;;25.48;39.19
61055;BME280;46939;48.940;8.258;2022-11-15T12:25:23;99631.53;;;25.46;39.22
61055;BME280;46939;48.940;8.258;2022-11-15T12:28:00;99619.66;;;25.55;39.10
61055;BME280;46939;48.940;8.258;2022-11-15T12:30:42;99621.34;;;25.65;38.79
61055;BME280;46939;48.940;8.258;2022-11-15T12:33:31;99612.31;;;25.56;37.71
61055;BME280;46939;48.940;8.258;2022-11-15T12:36:01;99607.41;;;25.58;38.47
61055;BME280;46939;48.940;8.258;2022-11-15T12:38:55;99605.94;;;25.74;38.31
61055;BME280;46939;48.940;8.258;2022-11-15T12:41:25;99602.63;;;25.77;37.55
61055;BME280;46939;48.940;8.258;2022-11-15T12:43:57;99591.38;;;25.70;37.89
61055;BME280;46939;48.940;8.258;2022-11-15T12:49:42;99586.75;;;25.85;38.33
61055;BME280;46939;48.940;8.258;2022-11-15T12:52:11;99584.69;;;25.90;37.89
61055;BME280;46939;48.940;8.258;2022-11-15T12:57:50;99574.13;;;25.66;37.84
61055;BME280;46939;48.940;8.258;2022-11-15T13:00:45;99560.56;;;25.66;37.49
61055;BME280;46939;48.940;8.258;2022-11-15T13:03:17;99557.09;;;25.74;37.50
61055;BME280;46939;48.940;8.258;2022-11-15T13:06:08;99545.25;;;25.84;38.06
61055;BME280;46939;48.940;8.258;2022-11-15T13:08:49;99549.22;;;25.87;38.16
61055;BME280;46939;48.940;8.258;2022-11-15T13:11:43;99546.72;;;25.90;38.05
61055;BME280;46939;48.940;8.258;2022-11-15T13:14:43;99544.19;;;25.94;38.00
61055;BME280;46939;48.940;8.258;2022-11-15T13:17:35;99539.06;;;25.92;37.92
61055;BME280;46939;48.940;8.258;2022-11-15T13:20:30;99534.13;;;25.94;38.15
61055;BME280;46939;48.940;8.258;2022-11-15T13:23:06;99533.84;;;25.96;38.00
61055;BME280;46939;48.940;8.258;2022-11-15T13:26:12;99529.38;;;26.00;37.71
61055;BME280;46939;48.940;8.258;2022-11-15T13:28:43;99520.91;;;26.01;37.72
61055;BME280;46939;48.940;8.258;2022-11-15T13:31:35;99514.22;;;25.99;37.28
61055;BME280;46939;48.940;8.258;2022-11-15T13:34:23;99512.72;;;25.93;37.59
61055;BME280;46939;48.940;8.258;2022-11-15T13:36:53;99514.66;;;25.92;37.79
61055;BME280;46939;48.940;8.258;2022-11-15T13:39:27;99502.31;;;25.86;37.69